createdAt,value
2023-03-18T00:00:13.246Z,100043.81
2023-03-18T00:02:40.645Z,100044.38
2023-03-18T00:05:08.823Z,100039.81
2023-03-18T00:07:37.341Z,100038.16
2023-03-18T00:10:10.000Z,100034.16
2023-03-18T00:12:38.759Z,100037.88
2023-03-18T00:15:10.936Z,100044.38
2023-03-18T00:17:38.260Z,100044.31
2023-03-18T00:20:06.834Z,100051.88
2023-03-18T00:22:36.382Z,100055.19
2023-03-18T00:25:05.656Z,100051.19
2023-03-18T00:27:32.876Z,100050.91
2023-03-18T00:29:59.745Z,100059.50
2023-03-18T00:32:27.847Z,100061.94
2023-03-18T00:34:56.786Z,100054.63
2023-03-18T00:37:30.767Z,100054.31
2023-03-18T00:40:06.821Z,100061.88
2023-03-18T00:42:39.324Z,100073.03
2023-03-18T00:45:08.372Z,100071.94
2023-03-18T00:47:35.811Z,100075.88
2023-03-18T00:50:03.497Z,100078.78
2023-03-18T00:52:32.326Z,100071.78
2023-03-18T00:55:00.609Z,100076.38
2023-03-18T00:57:29.404Z,100072.03
2023-03-18T00:59:57.093Z,100079.31
2023-03-18T01:02:24.759Z,100068.53
2023-03-18T01:04:52.141Z,100068.31
2023-03-18T01:07:19.494Z,100074.47
2023-03-18T01:09:49.310Z,100075.34
2023-03-18T01:12:16.034Z,100075.00
2023-03-18T01:14:43.115Z,100070.69
2023-03-18T01:17:10.733Z,100079.03
2023-03-18T01:19:37.896Z,100073.38
2023-03-18T01:22:04.741Z,100081.22
2023-03-18T01:24:37.236Z,100071.72
2023-03-18T01:27:06.187Z,100073.31
2023-03-18T01:29:33.986Z,100069.53
2023-03-18T01:32:02.930Z,100066.19
2023-03-18T01:34:30.740Z,100073.78
2023-03-18T01:36:57.697Z,100077.75
2023-03-18T01:39:27.310Z,100076.66
2023-03-18T01:41:54.050Z,100074.84
2023-03-18T01:44:29.113Z,100081.06
2023-03-18T01:46:56.941Z,100070.53
2023-03-18T01:49:39.326Z,100071.53
2023-03-18T01:52:22.207Z,100071.56
2023-03-18T01:55:17.393Z,100068.59
2023-03-18T01:57:44.536Z,100058.09
2023-03-18T02:00:12.120Z,100053.78
2023-03-18T02:02:43.219Z,100048.94
2023-03-18T02:05:13.253Z,100041.91
2023-03-18T02:07:44.133Z,100049.94
2023-03-18T02:10:26.569Z,100051.06
2023-03-18T02:13:06.725Z,100053.22
2023-03-18T02:15:44.678Z,100055.09
2023-03-18T02:18:21.137Z,100048.66
2023-03-18T02:21:03.574Z,100049.75
2023-03-18T02:23:50.908Z,100068.34
2023-03-18T02:26:28.027Z,100064.63
2023-03-18T02:28:58.622Z,100068.88
2023-03-18T02:31:27.138Z,100067.16
2023-03-18T02:33:54.249Z,100071.34
2023-03-18T02:36:25.173Z,100072.19
2023-03-18T02:38:53.241Z,100070.13
2023-03-18T02:41:29.483Z,100073.97
2023-03-18T02:43:56.716Z,100061.28
2023-03-18T02:46:36.375Z,100064.47
2023-03-18T02:49:06.570Z,100062.25
2023-03-18T02:51:37.626Z,100067.84
2023-03-18T02:54:10.963Z,100066.72
2023-03-18T02:56:42.592Z,100066.91
2023-03-18T02:59:10.930Z,100070.19
2023-03-18T03:01:40.054Z,100073.38
2023-03-18T03:04:07.498Z,100078.03
2023-03-18T03:06:34.961Z,100080.03
2023-03-18T03:09:03.430Z,100078.94
2023-03-18T03:11:30.307Z,100078.16
2023-03-18T03:14:05.605Z,100083.06
2023-03-18T03:16:34.153Z,100088.22
2023-03-18T03:19:00.799Z,100089.03
2023-03-18T03:21:27.817Z,100093.72
2023-03-18T03:23:54.717Z,100093.38
2023-03-18T03:26:22.020Z,100093.63
2023-03-18T03:28:48.674Z,100092.56
2023-03-18T03:31:16.924Z,100087.44
2023-03-18T03:33:44.446Z,100088.41
2023-03-18T03:36:13.638Z,100097.97
2023-03-18T03:38:41.570Z,100097.16
2023-03-18T03:41:12.166Z,100098.03
2023-03-18T03:43:40.804Z,100089.16
2023-03-18T03:46:09.359Z,100091.38
2023-03-18T03:48:38.044Z,100102.00
2023-03-18T03:51:07.578Z,100093.94
2023-03-18T03:53:36.093Z,100102.72
2023-03-18T03:56:04.185Z,100099.56
2023-03-18T03:58:31.128Z,100099.81
2023-03-18T04:00:58.295Z,100101.13
2023-03-18T04:03:25.575Z,100099.56
2023-03-18T04:05:53.619Z,100090.03
2023-03-18T04:08:23.428Z,100100.56
2023-03-18T04:10:50.145Z,100095.16
2023-03-18T04:13:16.850Z,100109.19
2023-03-18T04:15:43.698Z,100109.72
2023-03-18T04:18:14.789Z,100109.16
2023-03-18T04:20:41.505Z,100108.09
2023-03-18T04:23:16.861Z,100108.00
2023-03-18T04:25:44.476Z,100102.72
2023-03-18T04:28:11.429Z,100106.47
2023-03-18T04:30:38.200Z,100103.78
2023-03-18T04:33:10.162Z,100107.03
2023-03-18T04:35:42.632Z,100107.78
2023-03-18T04:38:11.878Z,100108.97
2023-03-18T04:40:38.897Z,100112.41
2023-03-18T04:43:05.667Z,100111.53
2023-03-18T04:45:33.227Z,100120.91
2023-03-18T04:48:01.841Z,100120.94
2023-03-18T04:50:33.132Z,100124.44
2023-03-18T04:53:00.151Z,100118.06
2023-03-18T04:55:29.342Z,100123.97
2023-03-18T04:57:56.792Z,100118.50
2023-03-18T05:00:25.652Z,100118.78
2023-03-18T05:03:02.076Z,100118.78
2023-03-18T05:05:28.859Z,100122.28
2023-03-18T05:07:55.474Z,100110.00
2023-03-18T05:10:23.881Z,100114.31
2023-03-18T05:12:50.858Z,100114.03
2023-03-18T05:15:27.467Z,100114.84
2023-03-18T05:17:57.817Z,100118.63
2023-03-18T05:20:25.380Z,100119.66
2023-03-18T05:22:53.199Z,100118.34
2023-03-18T05:25:49.225Z,100121.38
2023-03-18T05:28:16.333Z,100127.56
2023-03-18T05:30:56.405Z,100124.38
2023-03-18T05:33:23.826Z,100133.34
2023-03-18T05:35:53.921Z,100120.31
2023-03-18T05:38:25.847Z,100129.84
2023-03-18T05:40:53.368Z,100125.75
2023-03-18T05:43:28.307Z,100129.50
2023-03-18T05:45:57.311Z,100133.84
2023-03-18T05:48:35.741Z,100132.03
2023-03-18T05:51:05.954Z,100134.41
2023-03-18T05:53:35.157Z,100142.22
2023-03-18T05:56:12.222Z,100136.16
2023-03-18T05:58:38.889Z,100143.38
2023-03-18T06:01:20.118Z,100145.44
2023-03-18T06:03:46.999Z,100144.28
2023-03-18T06:06:13.610Z,100136.22
2023-03-18T06:08:41.126Z,100140.22
2023-03-18T06:11:08.067Z,100147.94
2023-03-18T06:13:35.070Z,100146.88
2023-03-18T06:16:03.693Z,100146.59
2023-03-18T06:18:30.708Z,100146.31
2023-03-18T06:20:57.432Z,100155.22
2023-03-18T06:23:24.069Z,100155.97
2023-03-18T06:25:51.188Z,100162.47
2023-03-18T06:28:19.411Z,100155.53
2023-03-18T06:30:46.702Z,100157.28
2023-03-18T06:33:14.025Z,100158.44
2023-03-18T06:35:41.159Z,100161.97
2023-03-18T06:38:08.745Z,100154.50
2023-03-18T06:40:37.688Z,100156.59
2023-03-18T06:43:04.736Z,100157.91
2023-03-18T06:45:40.280Z,100154.41
2023-03-18T06:48:10.320Z,100151.19
2023-03-18T06:50:42.089Z,100153.72
2023-03-18T06:53:14.855Z,100164.31
2023-03-18T06:55:43.261Z,100168.16
2023-03-18T06:58:10.554Z,100168.44
2023-03-18T07:00:47.486Z,100167.72
2023-03-18T07:03:21.524Z,100176.75
2023-03-18T07:05:49.163Z,100175.38
2023-03-18T07:08:16.649Z,100178.53
2023-03-18T07:10:43.345Z,100172.59
2023-03-18T07:13:13.439Z,100172.00
2023-03-18T07:15:41.526Z,100178.72
2023-03-18T07:18:11.937Z,100187.94
2023-03-18T07:20:38.904Z,100182.06
2023-03-18T07:23:05.698Z,100189.59
2023-03-18T07:25:32.557Z,100191.66
2023-03-18T07:28:04.876Z,100195.75
2023-03-18T07:30:31.779Z,100185.50
2023-03-18T07:32:58.604Z,100187.13
2023-03-18T07:35:27.461Z,100186.03
2023-03-18T07:37:54.126Z,100185.53
2023-03-18T07:40:20.911Z,100192.78
2023-03-18T07:42:48.174Z,100189.56
2023-03-18T07:45:14.827Z,100193.63
2023-03-18T07:47:41.602Z,100195.78
2023-03-18T07:50:09.533Z,100202.56
2023-03-18T07:52:37.471Z,100207.94
2023-03-18T07:55:04.855Z,100203.63
2023-03-18T07:57:31.596Z,100194.94
2023-03-18T07:59:58.278Z,100191.16
2023-03-18T08:02:25.346Z,100196.84
2023-03-18T08:04:52.684Z,100196.78
2023-03-18T08:07:19.726Z,100200.56
2023-03-18T08:09:46.636Z,100203.00
2023-03-18T08:12:13.323Z,100203.25
2023-03-18T08:14:39.954Z,100201.38
2023-03-18T08:17:06.641Z,100207.59
2023-03-18T08:19:33.365Z,100215.88
2023-03-18T08:22:00.531Z,100211.41
2023-03-18T08:24:27.468Z,100217.47
2023-03-18T08:26:54.250Z,100220.41
2023-03-18T08:29:21.027Z,100223.19
2023-03-18T08:31:47.744Z,100213.94
2023-03-18T08:34:15.381Z,100217.78
2023-03-18T08:36:42.872Z,100214.22
2023-03-18T08:39:09.986Z,100219.81
2023-03-18T08:41:37.095Z,100207.88
2023-03-18T08:44:06.542Z,100208.38
2023-03-18T08:46:33.145Z,100217.34
2023-03-18T08:48:59.898Z,100215.72
2023-03-18T08:51:26.853Z,100217.44
2023-03-18T08:53:54.308Z,100207.63
2023-03-18T08:56:21.045Z,100214.31
2023-03-18T08:58:48.434Z,100217.47
2023-03-18T09:01:16.006Z,100217.88
2023-03-18T09:03:42.774Z,100214.22
2023-03-18T09:06:09.786Z,100213.84
2023-03-18T09:08:36.744Z,100217.44
2023-03-18T09:11:03.351Z,100219.31
2023-03-18T09:13:29.981Z,100215.31
2023-03-18T09:15:56.629Z,100211.03
2023-03-18T09:18:23.263Z,100209.16
2023-03-18T09:20:50.218Z,100203.84
2023-03-18T09:23:18.227Z,100205.16
2023-03-18T09:25:46.521Z,100200.25
2023-03-18T09:28:14.404Z,100199.53
2023-03-18T09:30:41.719Z,100194.28
2023-03-18T09:33:10.911Z,100191.00
2023-03-18T09:35:38.337Z,100196.22
2023-03-18T09:38:05.407Z,100194.50
2023-03-18T09:40:38.553Z,100190.84
2023-03-18T09:43:21.394Z,100193.91
2023-03-18T09:46:26.122Z,100190.69
2023-03-18T09:49:24.370Z,100189.47
2023-03-18T09:52:28.745Z,100184.22
2023-03-18T09:55:27.204Z,100177.94
2023-03-18T09:57:58.527Z,100175.06
2023-03-18T10:00:36.338Z,100181.41
2023-03-18T10:03:29.606Z,100178.47
2023-03-18T10:06:16.250Z,100174.88
2023-03-18T10:09:01.669Z,100178.19
2023-03-18T10:11:33.222Z,100169.94
2023-03-18T10:14:18.663Z,100174.09
2023-03-18T10:17:06.974Z,100178.47
2023-03-18T10:19:36.115Z,100181.06
2023-03-18T10:22:27.896Z,100180.56
2023-03-18T10:25:09.974Z,100174.19
2023-03-18T10:27:45.804Z,100171.03
2023-03-18T10:30:52.666Z,100177.47
2023-03-18T10:33:54.705Z,100169.63
2023-03-18T10:36:31.819Z,100167.31
2023-03-18T10:39:00.016Z,100172.84
2023-03-18T10:41:35.944Z,100177.22
2023-03-18T10:44:15.627Z,100175.47
2023-03-18T10:46:44.166Z,100176.00
2023-03-18T10:49:20.119Z,100170.06
2023-03-18T10:51:53.546Z,100173.34
2023-03-18T10:54:50.232Z,100177.38
2023-03-18T10:57:18.612Z,100170.72
2023-03-18T10:59:45.965Z,100168.94
2023-03-18T11:02:20.639Z,100178.38
2023-03-18T11:04:50.801Z,100166.56
2023-03-18T11:07:26.055Z,100157.44
2023-03-18T11:09:53.041Z,100163.41
2023-03-18T11:12:24.351Z,100163.84
2023-03-18T11:14:51.627Z,100163.84
2023-03-18T11:17:46.212Z,100154.72
2023-03-18T11:20:47.526Z,100159.00
2023-03-18T11:23:35.935Z,100166.72
2023-03-18T11:26:02.998Z,100162.63
2023-03-18T11:28:30.006Z,100164.06
2023-03-18T11:31:00.513Z,100161.88
2023-03-18T11:33:35.129Z,100152.59
2023-03-18T11:36:13.157Z,100159.13
2023-03-18T11:38:39.988Z,100160.00
2023-03-18T11:41:09.608Z,100150.50
2023-03-18T11:43:37.942Z,100146.03
2023-03-18T11:46:08.268Z,100152.25
2023-03-18T11:48:39.299Z,100148.75
2023-03-18T11:51:27.489Z,100148.78
2023-03-18T11:54:13.079Z,100139.16
2023-03-18T11:56:47.518Z,100129.19
2023-03-18T11:59:31.402Z,100141.38
2023-03-18T12:02:30.816Z,100136.91
2023-03-18T12:05:16.677Z,100133.47
2023-03-18T12:08:09.926Z,100123.19
2023-03-18T12:10:42.273Z,100132.25
2023-03-18T12:13:30.314Z,100140.34
2023-03-18T12:15:57.057Z,100121.53
2023-03-18T12:18:33.866Z,100123.47
2023-03-18T12:21:12.006Z,100120.47
2023-03-18T12:24:16.433Z,100118.06
2023-03-18T12:27:00.650Z,100112.94
2023-03-18T12:29:45.857Z,100111.44
2023-03-18T12:32:41.054Z,100110.13
2023-03-18T12:35:16.117Z,100115.56
2023-03-18T12:38:01.693Z,100116.63
2023-03-18T12:40:33.953Z,100112.84
2023-03-18T12:43:32.826Z,100117.00
2023-03-18T12:46:36.019Z,100111.38
2023-03-18T12:49:12.170Z,100118.75
2023-03-18T12:51:56.080Z,100121.41
2023-03-18T12:54:30.864Z,100113.31
2023-03-18T12:57:08.099Z,100108.03
2023-03-18T12:59:53.225Z,100111.31
2023-03-18T13:02:39.695Z,100105.59
2023-03-18T13:05:18.311Z,100102.75
2023-03-18T13:07:52.362Z,100107.72
2023-03-18T13:10:24.218Z,100106.31
2023-03-18T13:13:00.803Z,100102.53
2023-03-18T13:15:43.049Z,100103.09
2023-03-18T13:18:18.941Z,100097.78
2023-03-18T13:20:47.654Z,100091.16
2023-03-18T13:23:42.047Z,100094.63
2023-03-18T13:26:29.018Z,100096.50
2023-03-18T13:29:25.923Z,100098.19
2023-03-18T13:32:25.154Z,100102.91
2023-03-18T13:35:06.233Z,100090.03
2023-03-18T13:38:11.922Z,100088.00
2023-03-18T13:41:28.668Z,100081.50
2023-03-18T13:43:57.551Z,100077.94
2023-03-18T13:46:28.773Z,100082.44
2023-03-18T13:48:58.689Z,100091.34
2023-03-18T13:51:25.228Z,100085.72
2023-03-18T13:54:00.758Z,100092.56
2023-03-18T13:56:31.501Z,100085.22
2023-03-18T13:59:04.689Z,100075.81
2023-03-18T14:01:34.491Z,100080.28
2023-03-18T14:04:30.263Z,100080.69
2023-03-18T14:07:21.004Z,100078.41
2023-03-18T14:10:18.243Z,100082.19
2023-03-18T14:12:47.468Z,100087.25
2023-03-18T14:15:14.641Z,100080.59
2023-03-18T14:17:53.593Z,100077.66
2023-03-18T14:20:23.913Z,100085.00
2023-03-18T14:22:54.655Z,100077.66
2023-03-18T14:25:43.118Z,100074.63
2023-03-18T14:28:10.121Z,100076.16
2023-03-18T14:30:37.257Z,100072.03
2023-03-18T14:33:25.690Z,100059.16
2023-03-18T14:36:06.836Z,100067.84
2023-03-18T14:38:59.345Z,100068.25
2023-03-18T14:41:29.394Z,100071.34
2023-03-18T14:44:23.551Z,100070.88
2023-03-18T14:46:58.797Z,100061.03
2023-03-18T14:49:28.584Z,100059.22
2023-03-18T14:51:55.841Z,100062.22
2023-03-18T14:54:27.182Z,100052.47
2023-03-18T14:56:56.555Z,100048.97
2023-03-18T14:59:26.336Z,100055.41
2023-03-18T15:01:55.369Z,100048.31
2023-03-18T15:04:24.854Z,100053.56
2023-03-18T15:06:53.134Z,100045.81
2023-03-18T15:09:25.646Z,100046.50
2023-03-18T15:11:52.672Z,100043.66
2023-03-18T15:14:25.908Z,100041.84
2023-03-18T15:16:54.529Z,100042.88
2023-03-18T15:19:21.638Z,100044.78
2023-03-18T15:21:48.626Z,100046.72
2023-03-18T15:24:20.680Z,100039.84
2023-03-18T15:26:56.817Z,100036.13
2023-03-18T15:29:29.766Z,100033.94
2023-03-18T15:32:15.822Z,100037.03
2023-03-18T15:34:45.835Z,100032.50
2023-03-18T15:37:31.740Z,100031.59
2023-03-18T15:40:16.836Z,100025.47
2023-03-18T15:42:45.513Z,100026.06
2023-03-18T15:45:19.823Z,100019.91
2023-03-18T15:47:47.828Z,100031.41
2023-03-18T15:50:36.001Z,100021.53
2023-03-18T15:53:18.080Z,100024.75
2023-03-18T15:55:49.832Z,100018.28
2023-03-18T15:58:22.887Z,100015.16
2023-03-18T16:00:51.000Z,100013.88
2023-03-18T16:03:26.472Z,100022.91
2023-03-18T16:05:54.160Z,100020.69
2023-03-18T16:08:22.836Z,100012.03
2023-03-18T16:10:52.937Z,100017.25
2023-03-18T16:13:24.465Z,100010.63
2023-03-18T16:15:52.709Z,100010.09
2023-03-18T16:18:21.290Z,100007.97
2023-03-18T16:20:49.993Z,100013.53
2023-03-18T16:23:17.409Z,100011.19
2023-03-18T16:25:49.949Z,100019.44
2023-03-18T16:28:23.353Z,100019.66
2023-03-18T16:30:52.357Z,100018.84
2023-03-18T16:33:20.451Z,100017.66
2023-03-18T16:35:55.262Z,100025.28
2023-03-18T16:38:22.856Z,100036.34
2023-03-18T16:40:49.965Z,100024.38
2023-03-18T16:43:19.668Z,100030.63
2023-03-18T16:45:48.418Z,100032.34
2023-03-18T16:48:18.612Z,100031.22
2023-03-18T16:50:48.541Z,100032.34
2023-03-18T16:53:24.528Z,100033.97
2023-03-18T16:55:54.776Z,100046.94
2023-03-18T16:58:28.020Z,100037.53
2023-03-18T17:00:54.814Z,100043.97
2023-03-18T17:03:21.471Z,100041.34
2023-03-18T17:05:52.794Z,100050.63
2023-03-18T17:08:21.512Z,100052.41
2023-03-18T17:10:50.821Z,100045.66
2023-03-18T17:13:23.801Z,100056.16
2023-03-18T17:15:51.404Z,100056.91
2023-03-18T17:18:21.322Z,100059.78
2023-03-18T17:20:48.735Z,100062.75
2023-03-18T17:23:26.725Z,100062.69
2023-03-18T17:26:02.893Z,100069.84
2023-03-18T17:28:37.076Z,100063.00
2023-03-18T17:31:04.199Z,100069.31
2023-03-18T17:33:33.258Z,100071.13
2023-03-18T17:36:01.805Z,100072.84
2023-03-18T17:38:30.679Z,100067.97
2023-03-18T17:40:59.429Z,100071.16
2023-03-18T17:43:32.828Z,100074.72
2023-03-18T17:46:01.625Z,100070.59
2023-03-18T17:48:30.759Z,100075.09
2023-03-18T17:50:59.922Z,100075.69
2023-03-18T17:53:45.955Z,100084.75
2023-03-18T17:56:15.808Z,100072.06
2023-03-18T17:58:44.614Z,100081.56
2023-03-18T18:01:20.487Z,100080.50
2023-03-18T18:03:47.937Z,100087.75
2023-03-18T18:06:21.365Z,100087.66
2023-03-18T18:08:49.667Z,100079.16
2023-03-18T18:11:20.065Z,100082.16
2023-03-18T18:13:48.558Z,100077.84
2023-03-18T18:16:15.791Z,100077.09
2023-03-18T18:18:43.317Z,100087.78
2023-03-18T18:21:17.328Z,100083.63
2023-03-18T18:23:45.596Z,100084.94
2023-03-18T18:26:17.386Z,100079.56
2023-03-18T18:28:47.889Z,100080.44
2023-03-18T18:31:17.443Z,100085.56
2023-03-18T18:33:45.578Z,100088.94
2023-03-18T18:36:13.780Z,100089.50
2023-03-18T18:38:40.653Z,100092.28
2023-03-18T18:41:07.993Z,100095.28
2023-03-18T18:43:34.987Z,100092.03
2023-03-18T18:46:01.955Z,100100.13
2023-03-18T18:48:31.773Z,100094.78
2023-03-18T18:51:00.199Z,100100.44
2023-03-18T18:53:29.496Z,100102.22
2023-03-18T18:56:00.019Z,100098.50
2023-03-18T18:58:32.487Z,100101.72
2023-03-18T19:00:59.998Z,100096.78
2023-03-18T19:03:31.285Z,100095.72
2023-03-18T19:06:00.957Z,100101.06
2023-03-18T19:08:34.310Z,100105.25
2023-03-18T19:11:07.654Z,100096.44
2023-03-18T19:13:36.014Z,100096.09
2023-03-18T19:16:16.946Z,100096.66
2023-03-18T19:18:43.969Z,100095.56
2023-03-18T19:21:11.086Z,100108.78
2023-03-18T19:23:38.644Z,100115.34
2023-03-18T19:26:07.381Z,100109.97
2023-03-18T19:28:57.615Z,100109.41
2023-03-18T19:31:30.531Z,100111.59
2023-03-18T19:34:00.145Z,100115.94
2023-03-18T19:36:30.713Z,100108.97
2023-03-18T19:38:59.432Z,100109.84
2023-03-18T19:41:26.745Z,100114.47
2023-03-18T19:43:55.193Z,100113.59
2023-03-18T19:46:29.999Z,100111.75
2023-03-18T19:48:56.729Z,100110.06
2023-03-18T19:51:23.522Z,100114.72
2023-03-18T19:53:50.129Z,100108.81
2023-03-18T19:56:24.309Z,100109.94
2023-03-18T19:58:57.352Z,100119.22
2023-03-18T20:01:27.039Z,100115.75
2023-03-18T20:03:58.280Z,100120.06
2023-03-18T20:06:26.254Z,100116.72
2023-03-18T20:08:53.002Z,100122.16
2023-03-18T20:11:20.972Z,100117.88
2023-03-18T20:13:48.619Z,100130.91
2023-03-18T20:16:17.614Z,100130.97
2023-03-18T20:18:44.765Z,100131.72
2023-03-18T20:21:22.972Z,100138.22
2023-03-18T20:23:51.475Z,100138.75
2023-03-18T20:26:18.629Z,100134.94
2023-03-18T20:28:45.700Z,100133.16
2023-03-18T20:31:14.598Z,100136.09
2023-03-18T20:33:41.339Z,100136.63
2023-03-18T20:36:16.966Z,100134.25
2023-03-18T20:38:47.381Z,100132.69
2023-03-18T20:41:18.376Z,100131.06
2023-03-18T20:43:49.111Z,100139.47
2023-03-18T20:46:17.000Z,100143.50
2023-03-18T20:48:44.785Z,100151.41
2023-03-18T20:51:22.654Z,100152.69
2023-03-18T20:53:49.449Z,100156.19
2023-03-18T20:56:17.070Z,100155.41
2023-03-18T20:58:44.021Z,100155.47
2023-03-18T21:01:14.011Z,100152.50
2023-03-18T21:03:41.474Z,100148.19
2023-03-18T21:06:14.858Z,100147.91
2023-03-18T21:08:42.659Z,100150.88
2023-03-18T21:11:20.341Z,100150.44
2023-03-18T21:13:47.093Z,100156.94
2023-03-18T21:16:16.616Z,100156.94
2023-03-18T21:18:47.634Z,100159.38
2023-03-18T21:21:35.871Z,100159.97
2023-03-18T21:24:03.221Z,100163.00
2023-03-18T21:26:29.854Z,100161.41
2023-03-18T21:28:57.255Z,100164.06
2023-03-18T21:31:31.101Z,100167.34
2023-03-18T21:33:57.889Z,100168.63
2023-03-18T21:36:24.652Z,100164.31
2023-03-18T21:38:52.045Z,100165.44
2023-03-18T21:41:25.549Z,100176.00
2023-03-18T21:43:52.584Z,100171.09
2023-03-18T21:46:22.450Z,100176.72
2023-03-18T21:48:49.263Z,100172.94
2023-03-18T21:51:37.602Z,100167.59
2023-03-18T21:54:05.888Z,100168.69
2023-03-18T21:56:32.635Z,100170.75
2023-03-18T21:58:59.407Z,100163.97
2023-03-18T22:01:30.729Z,100164.03
2023-03-18T22:03:58.102Z,100159.44
2023-03-18T22:06:25.079Z,100166.50
2023-03-18T22:08:52.126Z,100166.53
2023-03-18T22:11:21.964Z,100154.41
2023-03-18T22:13:49.414Z,100161.19
2023-03-18T22:16:17.933Z,100162.53
2023-03-18T22:18:46.427Z,100160.63
2023-03-18T22:21:24.307Z,100168.72
2023-03-18T22:23:51.805Z,100171.44
2023-03-18T22:26:19.432Z,100174.72
2023-03-18T22:28:46.875Z,100172.00
2023-03-18T22:31:22.991Z,100172.81
2023-03-18T22:33:49.937Z,100177.69
2023-03-18T22:36:19.568Z,100178.53
2023-03-18T22:38:46.346Z,100179.28
2023-03-18T22:41:30.320Z,100180.13
2023-03-18T22:44:01.493Z,100180.94
2023-03-18T22:46:28.410Z,100189.31
2023-03-18T22:48:55.588Z,100193.09
2023-03-18T22:51:27.217Z,100185.53
2023-03-18T22:53:54.692Z,100184.75
2023-03-18T22:56:22.567Z,100182.81
2023-03-18T22:58:50.075Z,100180.66
2023-03-18T23:01:20.479Z,100183.34
2023-03-18T23:03:47.744Z,100185.50
2023-03-18T23:06:17.515Z,100190.34
2023-03-18T23:08:45.620Z,100199.53
2023-03-18T23:11:13.444Z,100202.53
2023-03-18T23:13:42.880Z,100196.31
2023-03-18T23:16:14.886Z,100193.06
2023-03-18T23:18:41.809Z,100193.59
2023-03-18T23:21:14.789Z,100198.75
2023-03-18T23:23:41.425Z,100194.38
2023-03-18T23:26:08.303Z,100193.06
2023-03-18T23:28:44.137Z,100187.94
2023-03-18T23:31:12.808Z,100202.78
2023-03-18T23:33:39.769Z,100189.28
2023-03-18T23:36:06.734Z,100190.38
2023-03-18T23:38:33.379Z,100188.75
2023-03-18T23:41:00.177Z,100187.94
2023-03-18T23:43:26.958Z,100198.47
2023-03-18T23:45:53.685Z,100191.47
2023-03-18T23:48:20.363Z,100204.97
2023-03-18T23:50:47.214Z,100195.50
2023-03-18T23:53:13.824Z,100205.22
2023-03-18T23:55:40.457Z,100207.13
2023-03-18T23:58:07.105Z,100198.19
